sensor_id;sensor_type;location;lat;lon;timestamp;temperature;humidity
15916;DHT22;8057;47.830;-3.870;2022-12-07T00:03:13;1.50;99.90
15916;DHT22;8057;47.830;-3.870;2022-12-07T00:07:22;1.60;99.90
15916;DHT22;8057;47.830;-3.870;2022-12-07T00:11:35;1.80;99.90
15916;DHT22;8057;47.830;-3.870;2022-12-07T00:15:44;1.90;99.90
15916;DHT22;8057;47.830;-3.870;2022-12-07T00:19:54;1.90;99.90
15916;DHT22;8057;47.830;-3.870;2022-12-07T00:24:04;1.80;99.90
15916;DHT22;8057;47.830;-3.870;2022-12-07T00:28:15;1.80;99.90
15916;DHT22;8057;47.830;-3.870;2022-12-07T00:32:24;1.80;99.90
15916;DHT22;8057;47.830;-3.870;2022-12-07T00:36:33;1.80;99.90
15916;DHT22;8057;47.830;-3.870;2022-12-07T00:40:42;1.80;99.90
15916;DHT22;8057;47.830;-3.870;2022-12-07T00:44:53;1.80;99.90
15916;DHT22;8057;47.830;-3.870;2022-12-07T00:49:03;1.90;99.90
15916;DHT22;8057;47.830;-3.870;2022-12-07T00:53:12;2.00;99.90
15916;DHT22;8057;47.830;-3.870;2022-12-07T00:57:21;2.10;99.90
15916;DHT22;8057;47.830;-3.870;2022-12-07T01:01:33;2.20;99.90
15916;DHT22;8057;47.830;-3.870;2022-12-07T01:05:50;2.20;99.90
15916;DHT22;8057;47.830;-3.870;2022-12-07T01:09:59;2.30;99.90
15916;DHT22;8057;47.830;-3.870;2022-12-07T01:14:09;2.20;99.90
15916;DHT22;8057;47.830;-3.870;2022-12-07T01:18:19;2.10;99.90
15916;DHT22;8057;47.830;-3.870;2022-12-07T01:22:28;2.20;99.90
15916;DHT22;8057;47.830;-3.870;2022-12-07T01:26:38;2.20;99.90
15916;DHT22;8057;47.830;-3.870;2022-12-07T01:30:55;2.30;99.90
15916;DHT22;8057;47.830;-3.870;2022-12-07T01:35:07;2.20;99.90
15916;DHT22;8057;47.830;-3.870;2022-12-07T01:39:17;2.20;99.90
15916;DHT22;8057;47.830;-3.870;2022-12-07T01:43:27;2.20;99.90
15916;DHT22;8057;47.830;-3.870;2022-12-07T01:47:36;2.20;99.90
15916;DHT22;8057;47.830;-3.870;2022-12-07T01:51:48;2.20;99.90
15916;DHT22;8057;47.830;-3.870;2022-12-07T01:55:59;2.20;99.90
15916;DHT22;8057;47.830;-3.870;2022-12-07T02:00:09;2.20;99.90
15916;DHT22;8057;47.830;-3.870;2022-12-07T02:04:19;2.20;99.90
15916;DHT22;8057;47.830;-3.870;2022-12-07T02:08:32;2.30;99.90
15916;DHT22;8057;47.830;-3.870;2022-12-07T02:12:41;2.30;99.90
15916;DHT22;8057;47.830;-3.870;2022-12-07T02:16:59;2.20;99.90
15916;DHT22;8057;47.830;-3.870;2022-12-07T02:21:18;2.20;99.90
15916;DHT22;8057;47.830;-3.870;2022-12-07T02:25:41;2.20;99.90
15916;DHT22;8057;47.830;-3.870;2022-12-07T02:30:00;2.10;99.90
15916;DHT22;8057;47.830;-3.870;2022-12-07T02:34:17;2.00;99.90
15916;DHT22;8057;47.830;-3.870;2022-12-07T02:38:35;1.90;99.90
15916;DHT22;8057;47.830;-3.870;2022-12-07T02:42:47;2.00;99.90
15916;DHT22;8057;47.830;-3.870;2022-12-07T02:47:03;2.10;99.90
15916;DHT22;8057;47.830;-3.870;2022-12-07T02:51:14;2.10;99.90
15916;DHT22;8057;47.830;-3.870;2022-12-07T02:55:28;2.10;99.90
15916;DHT22;8057;47.830;-3.870;2022-12-07T02:59:46;2.10;99.90
15916;DHT22;8057;47.830;-3.870;2022-12-07T03:04:09;2.10;99.90
15916;DHT22;8057;47.830;-3.870;2022-12-07T03:08:28;2.20;99.90
15916;DHT22;8057;47.830;-3.870;2022-12-07T03:12:45;2.20;99.90
15916;DHT22;8057;47.830;-3.870;2022-12-07T03:17:01;2.10;99.90
15916;DHT22;8057;47.830;-3.870;2022-12-07T03:21:15;2.10;99.90
15916;DHT22;8057;47.830;-3.870;2022-12-07T03:25:26;2.20;99.90
15916;DHT22;8057;47.830;-3.870;2022-12-07T03:29:40;2.10;99.90
15916;DHT22;8057;47.830;-3.870;2022-12-07T03:33:55;2.10;99.90
15916;DHT22;8057;47.830;-3.870;2022-12-07T03:38:14;2.10;99.90
15916;DHT22;8057;47.830;-3.870;2022-12-07T03:42:25;2.10;99.90
15916;DHT22;8057;47.830;-3.870;2022-12-07T03:46:38;2.10;99.90
15916;DHT22;8057;47.830;-3.870;2022-12-07T03:50:53;2.00;99.90
15916;DHT22;8057;47.830;-3.870;2022-12-07T03:55:08;1.90;99.90
15916;DHT22;8057;47.830;-3.870;2022-12-07T03:59:19;1.90;99.90
15916;DHT22;8057;47.830;-3.870;2022-12-07T04:03:29;1.90;99.90
15916;DHT22;8057;47.830;-3.870;2022-12-07T04:07:38;1.90;99.90
15916;DHT22;8057;47.830;-3.870;2022-12-07T04:11:49;1.90;99.90
15916;DHT22;8057;47.830;-3.870;2022-12-07T04:15:58;1.90;99.90
15916;DHT22;8057;47.830;-3.870;2022-12-07T04:20:09;1.90;99.90
15916;DHT22;8057;47.830;-3.870;2022-12-07T04:24:18;1.90;99.90
15916;DHT22;8057;47.830;-3.870;2022-12-07T04:28:30;1.90;99.90
15916;DHT22;8057;47.830;-3.870;2022-12-07T04:32:39;1.80;99.90
15916;DHT22;8057;47.830;-3.870;2022-12-07T04:36:48;1.70;99.90
15916;DHT22;8057;47.830;-3.870;2022-12-07T04:40:57;1.70;99.90
15916;DHT22;8057;47.830;-3.870;2022-12-07T04:45:09;1.70;99.90
15916;DHT22;8057;47.830;-3.870;2022-12-07T04:49:18;1.60;99.90
15916;DHT22;8057;47.830;-3.870;2022-12-07T04:53:28;1.60;99.90
15916;DHT22;8057;47.830;-3.870;2022-12-07T04:57:37;1.70;99.90
15916;DHT22;8057;47.830;-3.870;2022-12-07T05:01:48;1.60;99.90
15916;DHT22;8057;47.830;-3.870;2022-12-07T05:05:57;1.60;99.90
15916;DHT22;8057;47.830;-3.870;2022-12-07T05:10:07;1.50;99.90
15916;DHT22;8057;47.830;-3.870;2022-12-07T05:14:18;1.50;99.90
15916;DHT22;8057;47.830;-3.870;2022-12-07T05:18:29;1.60;99.90
15916;DHT22;8057;47.830;-3.870;2022-12-07T05:22:38;1.40;99.90
15916;DHT22;8057;47.830;-3.870;2022-12-07T05:26:47;1.20;99.90
15916;DHT22;8057;47.830;-3.870;2022-12-07T05:30:56;1.20;99.90
15916;DHT22;8057;47.830;-3.870;2022-12-07T05:35:09;1.30;99.90
15916;DHT22;8057;47.830;-3.870;2022-12-07T05:39:18;1.30;99.90
15916;DHT22;8057;47.830;-3.870;2022-12-07T05:43:27;1.10;99.90
15916;DHT22;8057;47.830;-3.870;2022-12-07T05:47:38;1.00;99.90
15916;DHT22;8057;47.830;-3.870;2022-12-07T05:51:48;1.10;99.90
15916;DHT22;8057;47.830;-3.870;2022-12-07T05:55:58;1.30;99.90
15916;DHT22;8057;47.830;-3.870;2022-12-07T06:00:08;1.30;99.90
15916;DHT22;8057;47.830;-3.870;2022-12-07T06:04:18;1.40;99.90
15916;DHT22;8057;47.830;-3.870;2022-12-07T06:08:29;1.40;99.90
15916;DHT22;8057;47.830;-3.870;2022-12-07T06:12:38;1.30;99.90
15916;DHT22;8057;47.830;-3.870;2022-12-07T06:16:50;1.40;99.90
15916;DHT22;8057;47.830;-3.870;2022-12-07T06:20:59;1.30;99.90
15916;DHT22;8057;47.830;-3.870;2022-12-07T06:25:10;1.20;99.90
15916;DHT22;8057;47.830;-3.870;2022-12-07T06:29:19;1.20;99.90
15916;DHT22;8057;47.830;-3.870;2022-12-07T06:33:29;1.20;99.90
15916;DHT22;8057;47.830;-3.870;2022-12-07T06:37:38;1.30;99.90
15916;DHT22;8057;47.830;-3.870;2022-12-07T06:41:50;1.40;99.90
15916;DHT22;8057;47.830;-3.870;2022-12-07T06:46:01;1.40;99.90
15916;DHT22;8057;47.830;-3.870;2022-12-07T06:50:10;1.30;99.90
15916;DHT22;8057;47.830;-3.870;2022-12-07T06:54:19;1.20;99.90
15916;DHT22;8057;47.830;-3.870;2022-12-07T06:58:30;1.20;99.90
15916;DHT22;8057;47.830;-3.870;2022-12-07T07:02:39;1.10;99.90
15916;DHT22;8057;47.830;-3.870;2022-12-07T07:06:49;0.90;99.90
15916;DHT22;8057;47.830;-3.870;2022-12-07T07:11:06;0.80;99.90
15916;DHT22;8057;47.830;-3.870;2022-12-07T07:15:18;0.90;99.90
15916;DHT22;8057;47.830;-3.870;2022-12-07T07:19:27;1.00;99.90
15916;DHT22;8057;47.830;-3.870;2022-12-07T07:23:36;1.10;99.90
15916;DHT22;8057;47.830;-3.870;2022-12-07T07:27:45;1.10;99.90
15916;DHT22;8057;47.830;-3.870;2022-12-07T07:31:56;1.00;99.90
15916;DHT22;8057;47.830;-3.870;2022-12-07T07:36:12;1.00;99.90
15916;DHT22;8057;47.830;-3.870;2022-12-07T07:40:22;1.10;99.90
15916;DHT22;8057;47.830;-3.870;2022-12-07T07:44:31;1.10;99.90
15916;DHT22;8057;47.830;-3.870;2022-12-07T07:48:43;1.00;99.90
15916;DHT22;8057;47.830;-3.870;2022-12-07T07:52:52;1.00;99.90
15916;DHT22;8057;47.830;-3.870;2022-12-07T07:57:01;1.10;99.90
15916;DHT22;8057;47.830;-3.870;2022-12-07T08:01:15;1.30;99.90
15916;DHT22;8057;47.830;-3.870;2022-12-07T08:05:36;1.30;99.90
15916;DHT22;8057;47.830;-3.870;2022-12-07T08:09:46;1.30;99.90
15916;DHT22;8057;47.830;-3.870;2022-12-07T08:13:55;1.40;99.90
15916;DHT22;8057;47.830;-3.870;2022-12-07T08:18:04;1.40;99.90
15916;DHT22;8057;47.830;-3.870;2022-12-07T08:22:15;1.50;99.90
15916;DHT22;8057;47.830;-3.870;2022-12-07T08:26:24;1.60;99.90
15916;DHT22;8057;47.830;-3.870;2022-12-07T08:30:35;1.70;99.90
15916;DHT22;8057;47.830;-3.870;2022-12-07T08:34:44;1.80;99.90
15916;DHT22;8057;47.830;-3.870;2022-12-07T08:38:55;1.80;99.90
15916;DHT22;8057;47.830;-3.870;2022-12-07T08:43:24;2.00;99.90
15916;DHT22;8057;47.830;-3.870;2022-12-07T08:47:34;2.10;99.90
15916;DHT22;8057;47.830;-3.870;2022-12-07T08:51:44;2.20;99.90
15916;DHT22;8057;47.830;-3.870;2022-12-07T08:55:56;2.30;99.90
15916;DHT22;8057;47.830;-3.870;2022-12-07T09:00:22;2.40;99.90
15916;DHT22;8057;47.830;-3.870;2022-12-07T09:04:33;2.60;99.90
15916;DHT22;8057;47.830;-3.870;2022-12-07T09:08:46;2.70;99.90
15916;DHT22;8057;47.830;-3.870;2022-12-07T09:12:57;2.90;99.90
15916;DHT22;8057;47.830;-3.870;2022-12-07T09:17:11;3.00;99.90
15916;DHT22;8057;47.830;-3.870;2022-12-07T09:21:20;3.00;99.90
15916;DHT22;8057;47.830;-3.870;2022-12-07T09:25:31;3.20;99.90
15916;DHT22;8057;47.830;-3.870;2022-12-07T09:29:41;3.30;99.90
15916;DHT22;8057;47.830;-3.870;2022-12-07T09:33:55;3.40;99.90
15916;DHT22;8057;47.830;-3.870;2022-12-07T09:38:04;3.50;99.90
15916;DHT22;8057;47.830;-3.870;2022-12-07T09:42:26;3.70;99.90
15916;DHT22;8057;47.830;-3.870;2022-12-07T09:46:38;3.80;99.90
15916;DHT22;8057;47.830;-3.870;2022-12-07T09:50:51;4.00;99.90
15916;DHT22;8057;47.830;-3.870;2022-12-07T09:55:01;4.20;99.90
15916;DHT22;8057;47.830;-3.870;2022-12-07T09:59:16;4.30;99.90
15916;DHT22;8057;47.830;-3.870;2022-12-07T10:03:27;4.60;99.90
15916;DHT22;8057;47.830;-3.870;2022-12-07T10:07:39;4.70;99.90
15916;DHT22;8057;47.830;-3.870;2022-12-07T10:12:00;4.90;99.90
15916;DHT22;8057;47.830;-3.870;2022-12-07T10:16:30;5.10;99.90
15916;DHT22;8057;47.830;-3.870;2022-12-07T10:20:40;5.20;99.90
15916;DHT22;8057;47.830;-3.870;2022-12-07T10:24:51;5.40;99.90
15916;DHT22;8057;47.830;-3.870;2022-12-07T10:29:02;5.60;99.90
15916;DHT22;8057;47.830;-3.870;2022-12-07T10:33:29;5.70;99.90
15916;DHT22;8057;47.830;-3.870;2022-12-07T10:37:41;5.80;99.90
15916;DHT22;8057;47.830;-3.870;2022-12-07T10:41:56;6.00;99.90
15916;DHT22;8057;47.830;-3.870;2022-12-07T10:46:29;6.10;99.90
15916;DHT22;8057;47.830;-3.870;2022-12-07T10:50:52;6.20;99.90
15916;DHT22;8057;47.830;-3.870;2022-12-07T10:55:16;6.50;99.90
15916;DHT22;8057;47.830;-3.870;2022-12-07T10:59:51;6.60;99.90
15916;DHT22;8057;47.830;-3.870;2022-12-07T11:04:21;6.60;99.90
15916;DHT22;8057;47.830;-3.870;2022-12-07T11:08:44;6.80;99.90
15916;DHT22;8057;47.830;-3.870;2022-12-07T11:13:25;6.90;99.90
15916;DHT22;8057;47.830;-3.870;2022-12-07T11:17:45;7.10;99.90
15916;DHT22;8057;47.830;-3.870;2022-12-07T11:21:57;7.20;99.90
15916;DHT22;8057;47.830;-3.870;2022-12-07T11:26:12;7.30;99.90
15916;DHT22;8057;47.830;-3.870;2022-12-07T11:30:25;7.30;99.90
15916;DHT22;8057;47.830;-3.870;2022-12-07T11:34:43;7.40;99.90
15916;DHT22;8057;47.830;-3.870;2022-12-07T11:38:59;7.50;99.90
15916;DHT22;8057;47.830;-3.870;2022-12-07T11:43:15;7.70;99.90
15916;DHT22;8057;47.830;-3.870;2022-12-07T11:47:34;7.80;99.90
15916;DHT22;8057;47.830;-3.870;2022-12-07T11:51:50;7.90;99.90
15916;DHT22;8057;47.830;-3.870;2022-12-07T11:56:05;8.10;99.90
15916;DHT22;8057;47.830;-3.870;2022-12-07T12:00:17;8.20;99.90
15916;DHT22;8057;47.830;-3.870;2022-12-07T12:04:36;8.20;99.90
15916;DHT22;8057;47.830;-3.870;2022-12-07T12:08:54;8.30;99.90
15916;DHT22;8057;47.830;-3.870;2022-12-07T12:18:55;8.40;99.90
15916;DHT22;8057;47.830;-3.870;2022-12-07T12:23:11;8.50;99.90
15916;DHT22;8057;47.830;-3.870;2022-12-07T12:27:26;8.50;99.90
15916;DHT22;8057;47.830;-3.870;2022-12-07T12:31:39;8.60;99.90
15916;DHT22;8057;47.830;-3.870;2022-12-07T12:40:51;8.60;99.90
15916;DHT22;8057;47.830;-3.870;2022-12-07T12:45:19;8.60;99.90
15916;DHT22;8057;47.830;-3.870;2022-12-07T12:49:40;8.60;99.90
15916;DHT22;8057;47.830;-3.870;2022-12-07T12:53:50;8.60;99.90
15916;DHT22;8057;47.830;-3.870;2022-12-07T12:58:25;8.60;99.90
15916;DHT22;8057;47.830;-3.870;2022-12-07T13:02:39;8.60;99.90
15916;DHT22;8057;47.830;-3.870;2022-12-07T13:06:56;8.70;99.90
15916;DHT22;8057;47.830;-3.870;2022-12-07T13:11:17;8.80;99.90
15916;DHT22;8057;47.830;-3.870;2022-12-07T13:15:33;8.80;99.90
15916;DHT22;8057;47.830;-3.870;2022-12-07T13:19:59;8.60;99.90
15916;DHT22;8057;47.830;-3.870;2022-12-07T13:24:10;8.60;99.90
15916;DHT22;8057;47.830;-3.870;2022-12-07T13:28:22;8.60;99.90
15916;DHT22;8057;47.830;-3.870;2022-12-07T13:32:34;8.60;99.90
15916;DHT22;8057;47.830;-3.870;2022-12-07T13:36:45;8.60;99.90
15916;DHT22;8057;47.830;-3.870;2022-12-07T13:41:03;8.70;99.90
15916;DHT22;8057;47.830;-3.870;2022-12-07T13:45:22;8.60;99.90
15916;DHT22;8057;47.830;-3.870;2022-12-07T13:49:53;8.60;99.90
15916;DHT22;8057;47.830;-3.870;2022-12-07T13:54:10;8.60;99.90
15916;DHT22;8057;47.830;-3.870;2022-12-07T13:58:19;8.60;99.90
15916;DHT22;8057;47.830;-3.870;2022-12-07T14:02:30;8.60;99.90
15916;DHT22;8057;47.830;-3.870;2022-12-07T14:06:51;8.60;99.90
15916;DHT22;8057;47.830;-3.870;2022-12-07T14:11:15;8.60;99.90
15916;DHT22;8057;47.830;-3.870;2022-12-07T14:15:28;8.60;99.90
15916;DHT22;8057;47.830;-3.870;2022-12-07T14:19:44;8.60;99.90
15916;DHT22;8057;47.830;-3.870;2022-12-07T14:24:15;8.60;99.90
15916;DHT22;8057;47.830;-3.870;2022-12-07T14:28:28;8.50;99.90
15916;DHT22;8057;47.830;-3.870;2022-12-07T14:32:38;8.40;99.90
15916;DHT22;8057;47.830;-3.870;2022-12-07T14:36:48;8.40;99.90
15916;DHT22;8057;47.830;-3.870;2022-12-07T14:40:57;8.40;99.90
15916;DHT22;8057;47.830;-3.870;2022-12-07T14:45:28;8.40;99.90
15916;DHT22;8057;47.830;-3.870;2022-12-07T14:49:37;8.40;99.90
15916;DHT22;8057;47.830;-3.870;2022-12-07T14:53:50;8.40;99.90
15916;DHT22;8057;47.830;-3.870;2022-12-07T14:58:03;8.30;99.90
15916;DHT22;8057;47.830;-3.870;2022-12-07T15:02:15;8.30;99.90
15916;DHT22;8057;47.830;-3.870;2022-12-07T15:06:24;8.20;99.90
15916;DHT22;8057;47.830;-3.870;2022-12-07T15:10:34;8.20;99.90
15916;DHT22;8057;47.830;-3.870;2022-12-07T15:14:46;8.10;99.90
15916;DHT22;8057;47.830;-3.870;2022-12-07T15:18:56;8.00;99.90
15916;DHT22;8057;47.830;-3.870;2022-12-07T15:23:25;7.90;99.90
15916;DHT22;8057;47.830;-3.870;2022-12-07T15:27:35;7.90;99.90
15916;DHT22;8057;47.830;-3.870;2022-12-07T15:31:44;7.80;99.90
15916;DHT22;8057;47.830;-3.870;2022-12-07T15:36:04;7.80;99.90
15916;DHT22;8057;47.830;-3.870;2022-12-07T15:40:14;7.80;99.90
15916;DHT22;8057;47.830;-3.870;2022-12-07T15:44:23;7.70;99.90
15916;DHT22;8057;47.830;-3.870;2022-12-07T15:48:50;7.60;99.90
15916;DHT22;8057;47.830;-3.870;2022-12-07T15:53:00;7.50;99.90
15916;DHT22;8057;47.830;-3.870;2022-12-07T15:57:09;7.40;99.90
15916;DHT22;8057;47.830;-3.870;2022-12-07T16:01:19;7.30;99.90
15916;DHT22;8057;47.830;-3.870;2022-12-07T16:05:29;7.20;99.90
15916;DHT22;8057;47.830;-3.870;2022-12-07T16:09:40;7.00;99.90
15916;DHT22;8057;47.830;-3.870;2022-12-07T16:13:49;7.00;99.90
15916;DHT22;8057;47.830;-3.870;2022-12-07T16:17:59;6.90;99.90
15916;DHT22;8057;47.830;-3.870;2022-12-07T16:22:08;6.80;99.90
15916;DHT22;8057;47.830;-3.870;2022-12-07T16:26:20;6.70;99.90
15916;DHT22;8057;47.830;-3.870;2022-12-07T16:30:30;6.60;99.90
15916;DHT22;8057;47.830;-3.870;2022-12-07T16:34:39;6.50;99.90
15916;DHT22;8057;47.830;-3.870;2022-12-07T16:38:48;6.40;99.90
15916;DHT22;8057;47.830;-3.870;2022-12-07T16:42:59;6.30;99.90
15916;DHT22;8057;47.830;-3.870;2022-12-07T16:47:09;6.20;99.90
15916;DHT22;8057;47.830;-3.870;2022-12-07T16:51:18;6.10;99.90
15916;DHT22;8057;47.830;-3.870;2022-12-07T16:55:27;6.10;99.90
15916;DHT22;8057;47.830;-3.870;2022-12-07T16:59:38;6.10;99.90
15916;DHT22;8057;47.830;-3.870;2022-12-07T17:03:47;6.00;99.90
15916;DHT22;8057;47.830;-3.870;2022-12-07T17:07:58;6.00;99.90
15916;DHT22;8057;47.830;-3.870;2022-12-07T17:12:07;5.90;99.90
15916;DHT22;8057;47.830;-3.870;2022-12-07T17:16:18;5.80;99.90
15916;DHT22;8057;47.830;-3.870;2022-12-07T17:20:27;5.70;99.90
15916;DHT22;8057;47.830;-3.870;2022-12-07T17:24:37;5.60;99.90
15916;DHT22;8057;47.830;-3.870;2022-12-07T17:28:47;5.50;99.90
15916;DHT22;8057;47.830;-3.870;2022-12-07T17:32:57;5.40;99.90
15916;DHT22;8057;47.830;-3.870;2022-12-07T17:37:06;5.30;99.90
15916;DHT22;8057;47.830;-3.870;2022-12-07T17:41:17;5.20;99.90
15916;DHT22;8057;47.830;-3.870;2022-12-07T17:45:47;5.00;99.90
15916;DHT22;8057;47.830;-3.870;2022-12-07T17:49:57;4.90;99.90
15916;DHT22;8057;47.830;-3.870;2022-12-07T17:54:13;4.90;99.90
15916;DHT22;8057;47.830;-3.870;2022-12-07T17:58:22;4.80;99.90
15916;DHT22;8057;47.830;-3.870;2022-12-07T18:02:31;4.80;99.90
15916;DHT22;8057;47.830;-3.870;2022-12-07T18:06:42;4.80;99.90
15916;DHT22;8057;47.830;-3.870;2022-12-07T18:10:58;4.80;99.90
15916;DHT22;8057;47.830;-3.870;2022-12-07T18:15:08;4.70;99.90
15916;DHT22;8057;47.830;-3.870;2022-12-07T18:19:17;4.70;99.90
15916;DHT22;8057;47.830;-3.870;2022-12-07T18:23:28;4.60;99.90
15916;DHT22;8057;47.830;-3.870;2022-12-07T18:27:37;4.60;99.90
15916;DHT22;8057;47.830;-3.870;2022-12-07T18:31:47;4.50;99.90
15916;DHT22;8057;47.830;-3.870;2022-12-07T18:35:58;4.40;99.90
15916;DHT22;8057;47.830;-3.870;2022-12-07T18:40:11;4.30;99.90
15916;DHT22;8057;47.830;-3.870;2022-12-07T18:44:20;4.30;99.90
15916;DHT22;8057;47.830;-3.870;2022-12-07T18:48:30;4.30;99.90
15916;DHT22;8057;47.830;-3.870;2022-12-07T18:52:39;4.30;99.90
15916;DHT22;8057;47.830;-3.870;2022-12-07T18:56:49;4.30;99.90
15916;DHT22;8057;47.830;-3.870;2022-12-07T19:01:00;4.30;99.90
15916;DHT22;8057;47.830;-3.870;2022-12-07T19:05:09;4.30;99.90
15916;DHT22;8057;47.830;-3.870;2022-12-07T19:09:20;4.30;99.90
15916;DHT22;8057;47.830;-3.870;2022-12-07T19:13:31;4.20;99.90
15916;DHT22;8057;47.830;-3.870;2022-12-07T19:17:40;4.20;99.90
15916;DHT22;8057;47.830;-3.870;2022-12-07T19:21:50;4.20;99.90
15916;DHT22;8057;47.830;-3.870;2022-12-07T19:25:59;4.10;99.90
15916;DHT22;8057;47.830;-3.870;2022-12-07T19:30:11;4.10;99.90
15916;DHT22;8057;47.830;-3.870;2022-12-07T19:34:20;4.20;99.90
15916;DHT22;8057;47.830;-3.870;2022-12-07T19:38:29;4.20;99.90
15916;DHT22;8057;47.830;-3.870;2022-12-07T19:42:38;4.10;99.90
15916;DHT22;8057;47.830;-3.870;2022-12-07T19:46:50;3.90;99.90
15916;DHT22;8057;47.830;-3.870;2022-12-07T19:51:02;3.80;99.90
15916;DHT22;8057;47.830;-3.870;2022-12-07T19:55:11;3.70;99.90
15916;DHT22;8057;47.830;-3.870;2022-12-07T19:59:22;3.80;99.90
15916;DHT22;8057;47.830;-3.870;2022-12-07T20:03:33;3.70;99.90
15916;DHT22;8057;47.830;-3.870;2022-12-07T20:30:35;3.10;99.90
15916;DHT22;8057;47.830;-3.870;2022-12-07T20:34:47;3.20;99.90
15916;DHT22;8057;47.830;-3.870;2022-12-07T20:38:58;3.20;99.90
15916;DHT22;8057;47.830;-3.870;2022-12-07T23:00:32;4.10;99.90
15916;DHT22;8057;47.830;-3.870;2022-12-07T23:04:42;4.10;99.90
15916;DHT22;8057;47.830;-3.870;2022-12-07T23:08:54;4.10;99.90
15916;DHT22;8057;47.830;-3.870;2022-12-07T23:13:04;4.10;99.90
15916;DHT22;8057;47.830;-3.870;2022-12-07T23:17:34;4.10;99.90
15916;DHT22;8057;47.830;-3.870;2022-12-07T23:21:43;4.20;99.90
15916;DHT22;8057;47.830;-3.870;2022-12-07T23:25:52;4.20;99.90
15916;DHT22;8057;47.830;-3.870;2022-12-07T23:30:02;4.10;99.90
15916;DHT22;8057;47.830;-3.870;2022-12-07T23:34:14;4.00;99.90
15916;DHT22;8057;47.830;-3.870;2022-12-07T23:38:25;3.90;99.90
15916;DHT22;8057;47.830;-3.870;2022-12-07T23:42:34;4.00;99.90
15916;DHT22;8057;47.830;-3.870;2022-12-07T23:46:44;4.00;99.90
15916;DHT22;8057;47.830;-3.870;2022-12-07T23:50:57;4.00;99.90
15916;DHT22;8057;47.830;-3.870;2022-12-07T23:55:08;4.00;99.90
15916;DHT22;8057;47.830;-3.870;2022-12-07T23:59:18;4.00;99.90
